Time,TemperatureF,DewpointF,PressureIn,WindDirection,WindDirectionDegrees,WindSpeedMPH,WindSpeedGustMPH,Humidity,HourlyPrecipIn,Conditions,Clouds,dailyrainin,SoftwareType,DateUTC
2013-04-03 00:00:00,26.8,-6.1,29.20,NNW,346,0.0,0.0,23,0.00,CLR,,0.00,WeatherDisplay:10.37,2013-04-03 04:00:00,
2013-04-03 00:05:00,26.6,-5.4,29.20,NNW,346,0.0,0.0,24,0.00,CLR,,0.00,WeatherDisplay:10.37,2013-04-03 04:05:00,
2013-04-03 00:10:00,26.6,-5.4,29.20,NNW,346,0.0,0.0,24,0.00,CLR,,0.00,WeatherDisplay:10.37,2013-04-03 04:10:00,
2013-04-03 00:15:00,26.4,-5.6,29.20,NNW,346,0.0,0.0,24,0.00,CLR,,0.00,WeatherDisplay:10.37,2013-04-03 04:15:00,
2013-04-03 00:20:00,26.2,-5.8,29.20,NNW,346,0.0,0.0,24,0.00,CLR,,0.00,WeatherDisplay:10.37,2013-04-03 04:20:00,
2013-04-03 00:25:00,25.9,-6.0,29.20,NNW,346,0.0,0.0,24,0.00,CLR,,0.00,WeatherDisplay:10.37,2013-04-03 04:25:00,
2013-04-03 00:30:00,25.9,-6.0,29.20,NNW,346,0.0,0.0,24,0.00,CLR,,0.00,WeatherDisplay:10.37,2013-04-03 04:30:00,
2013-04-03 00:35:00,25.7,-6.2,29.20,NNW,346,0.0,0.0,24,0.00,CLR,,0.00,WeatherDisplay:10.37,2013-04-03 04:35:00,
2013-04-03 00:40:00,25.5,-6.3,29.20,NNW,346,0.0,0.0,24,0.00,CLR,,0.00,WeatherDisplay:10.37,2013-04-03 04:40:00,
2013-04-03 00:45:00,25.3,-6.5,29.20,NNW,346,0.0,0.0,24,0.00,CLR,,0.00,WeatherDisplay:10.37,2013-04-03 04:45:00,
2013-04-03 00:50:00,25.2,-6.6,29.20,NNW,346,0.0,0.0,24,0.00,CLR,,0.00,WeatherDisplay:10.37,2013-04-03 04:50:00,
2013-04-03 00:55:00,25.2,-6.6,29.20,NNW,346,0.0,0.0,24,0.00,CLR,,0.00,WeatherDisplay:10.37,2013-04-03 04:55:00,
2013-04-03 01:00:00,25.0,-6.8,29.20,NNW,346,0.0,0.0,24,0.00,CLR,,0.00,WeatherDisplay:10.37,2013-04-03 05:00:00,
2013-04-03 01:05:00,24.6,-7.1,29.20,NNW,346,0.0,0.0,24,0.00,CLR,,0.00,WeatherDisplay:10.37,2013-04-03 05:05:00,
2013-04-03 01:10:00,24.6,-7.1,29.20,NNW,346,0.0,0.0,24,0.00,CLR,,0.00,WeatherDisplay:10.37,2013-04-03 05:10:00,
2013-04-03 01:15:00,24.6,-7.1,29.20,NNW,346,0.0,0.0,24,0.00,CLR,,0.00,WeatherDisplay:10.37,2013-04-03 05:15:00,
2013-04-03 01:20:00,24.6,-7.1,29.20,NNW,346,0.0,0.0,24,0.00,CLR,,0.00,WeatherDisplay:10.37,2013-04-03 05:20:00,
2013-04-03 01:25:00,24.4,-7.3,29.20,NNW,346,0.0,0.0,24,0.00,CLR,,0.00,WeatherDisplay:10.37,2013-04-03 05:25:00,
2013-04-03 01:30:00,24.4,-7.3,29.20,NNW,346,0.0,0.0,24,0.00,CLR,,0.00,WeatherDisplay:10.37,2013-04-03 05:30:00,
2013-04-03 01:35:00,24.5,-7.2,29.20,NNW,346,0.0,0.0,24,0.00,CLR,,0.00,WeatherDisplay:10.37,2013-04-03 05:35:00,
2013-04-03 01:40:00,24.6,-7.1,29.20,NNW,346,0.0,0.0,24,0.00,CLR,,0.00,WeatherDisplay:10.37,2013-04-03 05:40:00,
2013-04-03 01:45:00,24.6,-7.1,29.20,NNW,346,0.0,0.0,24,0.00,CLR,,0.00,WeatherDisplay:10.37,2013-04-03 05:45:00,
2013-04-03 01:50:00,24.8,-7.0,29.20,NNW,346,0.0,0.0,24,0.00,CLR,,0.00,WeatherDisplay:10.37,2013-04-03 05:50:00,
2013-04-03 01:55:00,24.8,-7.0,29.20,NNW,346,0.0,0.0,24,0.00,CLR,,0.00,WeatherDisplay:10.37,2013-04-03 05:55:00,
2013-04-03 02:00:00,24.8,-7.0,29.20,NNW,346,0.0,0.0,24,0.00,CLR,,0.00,WeatherDisplay:10.37,2013-04-03 06:00:00,
2013-04-03 02:05:00,24.7,-7.0,29.20,NNW,346,0.0,0.0,24,0.00,CLR,,0.00,WeatherDisplay:10.37,2013-04-03 06:05:00,
2013-04-03 02:10:00,24.4,-7.3,29.24,NNW,346,0.0,0.0,24,0.00,CLR,,0.00,WeatherDisplay:10.37,2013-04-03 06:10:00,
2013-04-03 02:15:00,24.0,-7.7,29.24,NNW,346,0.0,0.0,24,0.00,CLR,,0.00,WeatherDisplay:10.37,2013-04-03 06:15:00,
2013-04-03 02:20:00,23.7,-7.9,29.24,NNW,346,0.0,0.0,24,0.00,CLR,,0.00,WeatherDisplay:10.37,2013-04-03 06:20:00,
2013-04-03 02:25:00,23.5,-8.0,29.20,NNW,346,0.0,0.0,24,0.00,CLR,,0.00,WeatherDisplay:10.37,2013-04-03 06:25:00,
2013-04-03 02:30:00,23.4,-8.2,29.20,NNW,346,0.0,0.0,24,0.00,CLR,,0.00,WeatherDisplay:10.37,2013-04-03 06:30:00,
2013-04-03 02:35:00,22.9,-7.8,29.20,NNW,346,0.0,0.0,25,0.00,CLR,,0.00,WeatherDisplay:10.37,2013-04-03 06:35:00,
2013-04-03 02:40:00,22.7,-8.0,29.24,NNW,346,0.0,0.0,25,0.00,CLR,,0.00,WeatherDisplay:10.37,2013-04-03 06:40:00,
2013-04-03 02:45:00,22.8,-7.8,29.24,NNW,346,0.0,0.0,25,0.00,CLR,,0.00,WeatherDisplay:10.37,2013-04-03 06:45:00,
2013-04-03 02:50:00,22.8,-7.8,29.24,NNW,346,0.0,0.0,25,0.00,CLR,,0.00,WeatherDisplay:10.37,2013-04-03 06:50:00,
2013-04-03 02:55:00,22.8,-7.8,29.24,NNW,346,0.0,0.0,25,0.00,CLR,,0.00,WeatherDisplay:10.37,2013-04-03 06:55:00,
2013-04-03 03:00:00,22.6,-8.0,29.24,NNW,346,0.0,0.0,25,0.00,CLR,,0.00,WeatherDisplay:10.37,2013-04-03 07:00:00,
2013-04-03 03:05:00,22.6,-8.0,29.24,NNW,346,0.0,0.0,25,0.00,CLR,,0.00,WeatherDisplay:10.37,2013-04-03 07:05:00,
2013-04-03 03:10:00,22.6,-8.0,29.24,NNW,346,0.0,0.0,25,0.00,CLR,,0.00,WeatherDisplay:10.37,2013-04-03 07:10:00,
2013-04-03 03:15:00,22.5,-8.1,29.24,NNW,346,0.0,0.0,25,0.00,CLR,,0.00,WeatherDisplay:10.37,2013-04-03 07:15:00,
2013-04-03 03:20:00,22.6,-8.0,29.24,NNW,346,0.0,0.0,25,0.00,CLR,,0.00,WeatherDisplay:10.37,2013-04-03 07:20:00,
2013-04-03 03:25:00,22.6,-8.0,29.24,NNW,346,0.0,0.0,25,0.00,CLR,,0.00,WeatherDisplay:10.37,2013-04-03 07:25:00,
2013-04-03 03:30:00,22.5,-8.1,29.24,NNW,346,0.0,0.0,25,0.00,CLR,,0.00,WeatherDisplay:10.37,2013-04-03 07:30:00,
2013-04-03 03:35:00,22.3,-8.3,29.24,NNW,346,0.0,0.0,25,0.00,CLR,,0.00,WeatherDisplay:10.37,2013-04-03 07:35:00,
2013-04-03 03:40:00,22.2,-8.3,29.24,NNW,346,0.0,0.0,25,0.00,CLR,,0.00,WeatherDisplay:10.37,2013-04-03 07:40:00,
2013-04-03 03:45:00,21.9,-8.6,29.24,NNW,346,0.0,0.0,25,0.00,CLR,,0.00,WeatherDisplay:10.37,2013-04-03 07:45:00,
2013-04-03 03:50:00,21.9,-8.6,29.24,NNW,346,0.0,0.0,25,0.00,CLR,,0.00,WeatherDisplay:10.37,2013-04-03 07:50:00,
2013-04-03 03:55:00,21.9,-8.6,29.24,NNW,346,0.0,0.0,25,0.00,CLR,,0.00,WeatherDisplay:10.37,2013-04-03 07:55:00,
2013-04-03 04:00:00,21.9,-8.6,29.24,NNW,346,0.0,0.0,25,0.00,CLR,,0.00,WeatherDisplay:10.37,2013-04-03 08:00:00,
2013-04-03 04:05:00,21.7,-8.8,29.24,NNW,346,0.0,0.0,25,0.00,CLR,,0.00,WeatherDisplay:10.37,2013-04-03 08:05:00,
2013-04-03 04:10:00,21.9,-8.6,29.24,NNW,346,0.0,0.0,25,0.00,CLR,,0.00,WeatherDisplay:10.37,2013-04-03 08:10:00,
2013-04-03 04:15:00,21.9,-8.6,29.24,NNW,346,0.0,0.0,25,0.00,CLR,,0.00,WeatherDisplay:10.37,2013-04-03 08:15:00,
2013-04-03 04:20:00,21.7,-8.8,29.24,NNW,346,0.0,0.0,25,0.00,CLR,,0.00,WeatherDisplay:10.37,2013-04-03 08:20:00,
2013-04-03 04:25:00,21.7,-8.8,29.24,NNW,346,0.0,0.0,25,0.00,CLR,,0.00,WeatherDisplay:10.37,2013-04-03 08:25:00,
2013-04-03 04:30:00,21.6,-8.9,29.24,NNW,346,0.0,0.0,25,0.00,CLR,,0.00,WeatherDisplay:10.37,2013-04-03 08:30:00,
2013-04-03 04:35:00,21.4,-9.1,29.24,NNW,346,0.0,0.0,25,0.00,CLR,,0.00,WeatherDisplay:10.37,2013-04-03 08:35:00,
2013-04-03 04:40:00,21.4,-9.1,29.24,NNW,346,0.0,0.0,25,0.00,CLR,,0.00,WeatherDisplay:10.37,2013-04-03 08:40:00,
2013-04-03 04:45:00,21.2,-9.2,29.24,NNW,346,0.0,0.0,25,0.00,CLR,,0.00,WeatherDisplay:10.37,2013-04-03 08:45:00,
2013-04-03 04:50:00,21.2,-9.2,29.24,NNW,346,0.0,0.0,25,0.00,CLR,,0.00,WeatherDisplay:10.37,2013-04-03 08:50:00,
2013-04-03 04:55:00,21.2,-9.2,29.24,NNW,346,0.0,0.0,25,0.00,CLR,,0.00,WeatherDisplay:10.37,2013-04-03 08:55:00,
2013-04-03 05:00:00,21.2,-9.2,29.24,NNW,346,0.0,0.0,25,0.00,CLR,,0.00,WeatherDisplay:10.37,2013-04-03 09:00:00,
2013-04-03 05:05:00,21.2,-9.2,29.24,NNW,346,0.0,0.0,25,0.00,CLR,,0.00,WeatherDisplay:10.37,2013-04-03 09:05:00,
2013-04-03 05:10:00,21.2,-9.2,29.24,NNW,346,0.0,0.0,25,0.00,CLR,,0.00,WeatherDisplay:10.37,2013-04-03 09:10:00,
2013-04-03 05:15:00,21.0,-9.4,29.24,NNW,346,0.0,0.0,25,0.00,CLR,,0.00,WeatherDisplay:10.37,2013-04-03 09:15:00,
2013-04-03 05:20:00,20.7,-9.7,29.24,NNW,346,0.0,0.0,25,0.00,CLR,,0.00,WeatherDisplay:10.37,2013-04-03 09:20:00,
2013-04-03 05:25:00,20.7,-9.7,29.26,NNW,346,0.0,0.0,25,0.00,CLR,,0.00,WeatherDisplay:10.37,2013-04-03 09:25:00,
2013-04-03 05:30:00,20.7,-9.7,29.26,NNW,346,0.0,0.0,25,0.00,CLR,,0.00,WeatherDisplay:10.37,2013-04-03 09:30:00,
2013-04-03 05:35:00,20.8,-9.5,29.26,NNW,346,0.0,0.0,25,0.00,CLR,,0.00,WeatherDisplay:10.37,2013-04-03 09:35:00,
2013-04-03 05:40:00,20.7,-9.6,29.24,NNW,346,0.0,0.0,25,0.00,CLR,,0.00,WeatherDisplay:10.37,2013-04-03 09:40:00,
2013-04-03 05:45:00,20.5,-9.8,29.24,NNW,346,0.0,0.0,25,0.00,CLR,,0.00,WeatherDisplay:10.37,2013-04-03 09:45:00,
2013-04-03 05:50:00,20.3,-10.0,29.24,NNW,346,0.0,0.0,25,0.00,CLR,,0.00,WeatherDisplay:10.37,2013-04-03 09:50:00,
2013-04-03 05:55:00,20.4,-9.9,29.26,NNW,346,0.0,0.0,25,0.00,CLR,,0.00,WeatherDisplay:10.37,2013-04-03 09:55:00,
2013-04-03 06:00:00,20.7,-9.7,29.26,NNW,346,0.0,0.0,25,0.00,CLR,,0.00,WeatherDisplay:10.37,2013-04-03 10:00:00,
2013-04-03 06:05:00,20.9,-9.5,29.26,NNW,346,0.0,0.0,25,0.00,CLR,,0.00,WeatherDisplay:10.37,2013-04-03 10:05:00,
2013-04-03 06:10:00,21.0,-9.4,29.26,NNW,346,0.0,0.0,25,0.00,CLR,,0.00,WeatherDisplay:10.37,2013-04-03 10:10:00,
2013-04-03 06:15:00,20.8,-9.5,29.26,NNW,346,0.0,0.0,25,0.00,CLR,,0.00,WeatherDisplay:10.37,2013-04-03 10:15:00,
2013-04-03 06:20:00,20.7,-9.7,29.26,NNW,346,0.0,0.0,25,0.00,CLR,,0.00,WeatherDisplay:10.37,2013-04-03 10:20:00,
2013-04-03 06:25:00,20.8,-9.5,29.26,NNW,346,0.0,0.0,25,0.00,CLR,,0.00,WeatherDisplay:10.37,2013-04-03 10:25:00,
2013-04-03 06:30:00,20.5,-9.8,29.26,NNW,346,0.0,0.0,25,0.00,CLR,,0.00,WeatherDisplay:10.37,2013-04-03 10:30:00,
2013-04-03 06:35:00,20.3,-10.0,29.26,NNW,346,0.0,0.0,25,0.00,CLR,,0.00,WeatherDisplay:10.37,2013-04-03 10:35:00,
2013-04-03 06:40:00,20.4,-9.9,29.26,NNW,346,0.0,0.0,25,0.00,CLR,,0.00,WeatherDisplay:10.37,2013-04-03 10:40:00,
2013-04-03 06:45:00,20.7,-9.7,29.26,NNW,346,0.0,0.0,25,0.00,CLR,,0.00,WeatherDisplay:10.37,2013-04-03 10:45:00,
2013-04-03 06:50:00,20.7,-9.7,29.26,NNW,346,0.0,0.0,25,0.00,CLR,,0.00,WeatherDisplay:10.37,2013-04-03 10:50:00,
2013-04-03 06:55:00,20.2,-10.1,29.26,NNW,346,0.0,0.0,25,0.00,CLR,,0.00,WeatherDisplay:10.37,2013-04-03 10:55:00,
2013-04-03 07:00:00,20.1,-10.1,29.26,NNW,346,0.0,0.0,25,0.00,CLR,,0.00,WeatherDisplay:10.37,2013-04-03 11:00:00,
2013-04-03 07:05:00,20.1,-10.1,29.26,NNW,346,0.0,0.0,25,0.00,CLR,,0.00,WeatherDisplay:10.37,2013-04-03 11:05:00,
2013-04-03 07:10:00,19.9,-10.3,29.26,NNW,346,0.0,0.0,25,0.00,CLR,,0.00,WeatherDisplay:10.37,2013-04-03 11:10:00,
2013-04-03 07:15:00,19.9,-10.3,29.26,NNW,346,0.0,0.0,25,0.00,CLR,,0.00,WeatherDisplay:10.37,2013-04-03 11:15:00,
2013-04-03 07:20:00,20.3,-10.0,29.26,NNW,346,0.0,0.0,25,0.00,CLR,,0.00,WeatherDisplay:10.37,2013-04-03 11:20:00,
2013-04-03 07:25:00,20.3,-10.0,29.26,NNW,346,0.0,0.0,25,0.00,CLR,,0.00,WeatherDisplay:10.37,2013-04-03 11:25:00,
2013-04-03 07:30:00,20.1,-10.1,29.26,NNW,346,0.0,0.0,25,0.00,CLR,,0.00,WeatherDisplay:10.37,2013-04-03 11:30:00,
2013-04-03 07:35:00,20.1,-10.1,29.26,NNW,346,0.0,0.0,25,0.00,CLR,,0.00,WeatherDisplay:10.37,2013-04-03 11:35:00,
2013-04-03 07:40:00,20.5,-9.9,29.26,NNW,346,0.0,0.0,25,0.00,CLR,,0.00,WeatherDisplay:10.37,2013-04-03 11:40:00,
2013-04-03 07:45:00,22.7,-7.9,29.26,NNW,346,0.0,0.0,25,0.00,CLR,,0.00,WeatherDisplay:10.37,2013-04-03 11:45:00,
2013-04-03 07:50:00,25.7,-6.2,29.26,NNW,346,0.0,0.0,24,0.00,CLR,,0.00,WeatherDisplay:10.37,2013-04-03 11:50:00,
2013-04-03 07:55:00,28.9,-4.4,29.26,NNW,346,0.0,0.0,23,0.00,CLR,,0.00,WeatherDisplay:10.37,2013-04-03 11:55:00,
2013-04-03 08:00:00,30.9,-2.6,29.26,NNW,346,0.0,0.0,23,0.00,CLR,,0.00,WeatherDisplay:10.37,2013-04-03 12:00:00,
2013-04-03 08:05:00,31.0,-2.6,29.26,NNW,346,0.0,0.0,23,0.00,CLR,,0.00,WeatherDisplay:10.37,2013-04-03 12:05:00,
2013-04-03 08:10:00,31.0,-2.5,29.26,NNW,346,0.0,0.0,23,0.00,CLR,,0.00,WeatherDisplay:10.37,2013-04-03 12:10:00,
2013-04-03 08:15:00,30.9,-2.6,29.26,NNW,346,0.0,0.0,23,0.00,CLR,,0.00,WeatherDisplay:10.37,2013-04-03 12:15:00,
2013-04-03 08:20:00,30.6,-2.9,29.26,NNW,346,0.0,0.0,23,0.00,CLR,,0.00,WeatherDisplay:10.37,2013-04-03 12:20:00,
2013-04-03 08:25:00,30.4,-3.1,29.29,NNW,346,0.0,0.0,23,0.00,CLR,,0.00,WeatherDisplay:10.37,2013-04-03 12:25:00,
2013-04-03 08:30:00,30.2,-3.2,29.29,NNW,346,0.0,0.0,23,0.00,CLR,,0.00,WeatherDisplay:10.37,2013-04-03 12:30:00,
2013-04-03 08:35:00,30.2,-3.3,29.29,NNW,346,0.0,0.0,23,0.00,CLR,,0.00,WeatherDisplay:10.37,2013-04-03 12:35:00,
2013-04-03 08:40:00,30.3,-3.1,29.29,NNW,346,0.0,0.0,23,0.00,CLR,,0.00,WeatherDisplay:10.37,2013-04-03 12:40:00,
2013-04-03 08:45:00,30.6,-2.9,29.29,NNW,346,0.0,0.0,23,0.00,CLR,,0.00,WeatherDisplay:10.37,2013-04-03 12:45:00,
2013-04-03 08:50:00,30.9,-2.6,29.29,NNW,346,2.0,4.0,23,0.00,CLR,,0.00,WeatherDisplay:10.37,2013-04-03 12:50:00,
2013-04-03 08:55:00,31.2,-2.4,29.32,NNW,346,1.0,4.0,23,0.00,CLR,,0.00,WeatherDisplay:10.37,2013-04-03 12:55:00,
2013-04-03 09:00:00,31.5,-2.2,29.32,NNW,346,0.0,3.0,23,0.00,CLR,,0.00,WeatherDisplay:10.37,2013-04-03 13:00:00,
2013-04-03 09:05:00,31.7,-1.9,29.32,NNW,346,2.0,4.0,23,0.00,CLR,,0.00,WeatherDisplay:10.37,2013-04-03 13:05:00,
2013-04-03 09:10:00,32.2,-1.5,29.32,NNW,346,2.0,3.0,23,0.00,CLR,,0.00,WeatherDisplay:10.37,2013-04-03 13:10:00,
2013-04-03 09:20:00,32.9,-0.9,29.32,NNW,346,0.0,4.0,23,0.00,CLR,,0.00,WeatherDisplay:10.37,2013-04-03 13:20:00,
2013-04-03 09:25:00,33.3,-0.6,29.35,NNW,346,2.0,4.0,23,0.00,CLR,,0.00,WeatherDisplay:10.37,2013-04-03 13:25:00,
2013-04-03 09:30:00,33.9,-1.1,29.35,NW,318,0.0,4.0,22,0.00,CLR,,0.00,WeatherDisplay:10.37,2013-04-03 13:30:00,
2013-04-03 09:35:00,34.3,-0.7,29.35,NW,307,3.0,4.0,22,0.00,CLR,,0.00,WeatherDisplay:10.37,2013-04-03 13:35:00,
2013-04-03 09:40:00,35.0,-0.1,29.35,NW,311,2.0,5.0,22,0.00,CLR,,0.00,WeatherDisplay:10.37,2013-04-03 13:40:00,
2013-04-03 09:45:00,35.1,0.0,29.35,NW,321,3.0,4.0,22,0.00,CLR,,0.00,WeatherDisplay:10.37,2013-04-03 13:45:00,
2013-04-03 09:50:00,35.3,0.2,29.35,NNW,330,0.0,5.0,22,0.00,CLR,,0.00,WeatherDisplay:10.37,2013-04-03 13:50:00,
2013-04-03 09:55:00,36.0,0.7,29.35,NNW,331,2.0,4.0,22,0.00,CLR,,0.00,WeatherDisplay:10.37,2013-04-03 13:55:00,
2013-04-03 10:00:00,36.4,1.1,29.35,NW,325,0.0,5.0,22,0.00,CLR,,0.00,WeatherDisplay:10.37,2013-04-03 14:00:00,
2013-04-03 10:05:00,36.9,1.5,29.35,NNW,327,2.0,4.0,22,0.00,CLR,,0.00,WeatherDisplay:10.37,2013-04-03 14:05:00,
2013-04-03 10:10:00,36.7,1.3,29.35,NW,313,3.0,5.0,22,0.00,CLR,,0.00,WeatherDisplay:10.37,2013-04-03 14:10:00,
2013-04-03 10:15:00,37.4,1.0,29.35,NW,311,0.0,4.0,21,0.00,CLR,,0.00,WeatherDisplay:10.37,2013-04-03 14:15:00,
2013-04-03 10:20:00,37.8,1.3,29.35,North,7,3.0,5.0,21,0.00,CLR,,0.00,WeatherDisplay:10.37,2013-04-03 14:20:00,
2013-04-03 10:25:00,39.3,2.5,29.35,NE,51,3.0,5.0,21,0.00,CLR,,0.00,WeatherDisplay:10.37,2013-04-03 14:25:00,
2013-04-03 10:30:00,38.6,2.0,29.35,NE,52,2.0,6.0,21,0.00,CLR,,0.00,WeatherDisplay:10.37,2013-04-03 14:30:00,
2013-04-03 10:35:00,38.3,1.7,29.35,ENE,61,3.0,8.0,21,0.00,CLR,,0.00,WeatherDisplay:10.37,2013-04-03 14:35:00,
2013-04-03 10:40:00,38.6,1.9,29.35,NE,47,3.0,5.0,21,0.00,CLR,,0.00,WeatherDisplay:10.37,2013-04-03 14:40:00,
2013-04-03 10:45:00,38.2,1.6,29.35,North,0,3.0,6.0,21,0.00,CLR,,0.00,WeatherDisplay:10.37,2013-04-03 14:45:00,
2013-04-03 10:50:00,38.8,2.1,29.35,North,358,0.0,6.0,21,0.00,CLR,,0.00,WeatherDisplay:10.37,2013-04-03 14:50:00,
2013-04-03 10:55:00,39.7,2.9,29.35,NE,55,1.0,5.0,21,0.00,CLR,,0.00,WeatherDisplay:10.37,2013-04-03 14:55:00,
2013-04-03 11:00:00,41.0,4.0,29.35,ENE,72,2.0,4.0,21,0.00,CLR,,0.00,WeatherDisplay:10.37,2013-04-03 15:00:00,
2013-04-03 11:10:00,39.7,2.9,29.35,North,351,2.0,5.0,21,0.00,CLR,,0.00,WeatherDisplay:10.37,2013-04-03 15:10:00,
2013-04-03 11:20:00,39.6,2.8,29.35,NNW,342,5.0,6.0,21,0.00,CLR,,0.00,WeatherDisplay:10.37,2013-04-03 15:20:00,
2013-04-03 11:25:00,39.1,2.4,29.38,NW,318,5.0,8.0,21,0.00,CLR,,0.00,WeatherDisplay:10.37,2013-04-03 15:25:00,
2013-04-03 11:30:00,39.0,2.3,29.38,NW,315,5.0,6.0,21,0.00,CLR,,0.00,WeatherDisplay:10.37,2013-04-03 15:30:00,
2013-04-03 11:35:00,38.9,2.2,29.38,NW,316,2.0,6.0,21,0.00,CLR,,0.00,WeatherDisplay:10.37,2013-04-03 15:35:00,
2013-04-03 11:40:00,40.6,3.7,29.35,NW,315,0.0,3.0,21,0.00,CLR,,0.00,WeatherDisplay:10.37,2013-04-03 15:40:00,
2013-04-03 11:45:00,43.3,4.8,29.35,North,1,0.0,5.0,20,0.00,CLR,,0.00,WeatherDisplay:10.37,2013-04-03 15:45:00,
2013-04-03 11:50:00,42.6,4.3,29.35,North,9,3.0,6.0,20,0.00,CLR,,0.00,WeatherDisplay:10.37,2013-04-03 15:50:00,
2013-04-03 11:55:00,40.8,3.8,29.35,North,349,5.0,6.0,21,0.00,CLR,,0.00,WeatherDisplay:10.37,2013-04-03 15:55:00,
2013-04-03 12:00:00,41.2,4.1,29.35,North,357,0.0,6.0,21,0.00,CLR,,0.00,WeatherDisplay:10.37,2013-04-03 16:00:00,
2013-04-03 12:05:00,42.1,4.9,29.35,North,6,3.0,6.0,21,0.00,CLR,,0.00,WeatherDisplay:10.37,2013-04-03 16:05:00,
2013-04-03 12:10:00,42.4,5.2,29.35,NE,37,2.0,4.0,21,0.00,CLR,,0.00,WeatherDisplay:10.37,2013-04-03 16:10:00,
2013-04-03 12:20:00,44.0,5.4,29.35,ENE,59,1.0,6.0,20,0.00,CLR,,0.00,WeatherDisplay:10.37,2013-04-03 16:20:00,
2013-04-03 12:25:00,42.8,4.4,29.35,NNE,18,3.0,8.0,20,0.00,CLR,,0.00,WeatherDisplay:10.37,2013-04-03 16:25:00,
2013-04-03 12:35:00,43.4,4.9,29.35,NE,47,3.0,5.0,20,0.00,CLR,,0.00,WeatherDisplay:10.37,2013-04-03 16:35:00,
2013-04-03 12:40:00,43.1,4.7,29.35,NW,315,2.0,4.0,20,0.00,CLR,,0.00,WeatherDisplay:10.37,2013-04-03 16:40:00,
2013-04-03 12:45:00,42.3,5.1,29.35,NNW,329,5.0,6.0,21,0.00,CLR,,0.00,WeatherDisplay:10.37,2013-04-03 16:45:00,
2013-04-03 12:50:00,42.8,4.4,29.35,NNE,22,2.0,6.0,20,0.00,CLR,,0.00,WeatherDisplay:10.37,2013-04-03 16:50:00,
2013-04-03 12:55:00,43.3,4.9,29.32,NE,47,2.0,8.0,20,0.00,CLR,,0.00,WeatherDisplay:10.37,2013-04-03 16:55:00,
2013-04-03 13:00:00,43.5,5.0,29.32,NE,37,3.0,8.0,20,0.00,CLR,,0.00,WeatherDisplay:10.37,2013-04-03 17:00:00,
2013-04-03 13:05:00,44.1,5.5,29.32,NNE,18,3.0,8.0,20,0.00,CLR,,0.00,WeatherDisplay:10.37,2013-04-03 17:05:00,
2013-04-03 13:10:00,43.8,5.3,29.35,NNE,12,3.0,4.0,20,0.00,CLR,,0.00,WeatherDisplay:10.37,2013-04-03 17:10:00,
2013-04-03 13:20:00,43.5,5.0,29.35,ENE,65,3.0,8.0,20,0.00,CLR,,0.00,WeatherDisplay:10.37,2013-04-03 17:20:00,
2013-04-03 13:25:00,44.3,5.7,29.35,ENE,61,0.0,8.0,20,0.00,CLR,,0.00,WeatherDisplay:10.37,2013-04-03 17:25:00,
2013-04-03 13:30:00,42.8,4.4,29.35,NNE,17,5.0,8.0,20,0.00,CLR,,0.00,WeatherDisplay:10.37,2013-04-03 17:30:00,
2013-04-03 13:35:00,42.8,4.4,29.35,NNW,334,5.0,8.0,20,0.00,CLR,,0.00,WeatherDisplay:10.37,2013-04-03 17:35:00,
2013-04-03 13:40:00,42.7,4.4,29.35,NNW,327,7.0,8.0,20,0.00,CLR,,0.00,WeatherDisplay:10.37,2013-04-03 17:40:00,
2013-04-03 13:45:00,42.3,5.1,29.35,NNW,328,5.0,8.0,21,0.00,CLR,,0.00,WeatherDisplay:10.37,2013-04-03 17:45:00,
2013-04-03 13:50:00,43.9,5.3,29.35,NW,326,6.0,8.0,20,0.00,CLR,,0.00,WeatherDisplay:10.37,2013-04-03 17:50:00,
2013-04-03 14:00:00,44.5,5.8,29.35,NNW,335,2.0,6.0,20,0.00,CLR,,0.00,WeatherDisplay:10.37,2013-04-03 18:00:00,
2013-04-03 14:05:00,44.8,6.1,29.35,NW,326,6.0,8.0,20,0.00,CLR,,0.00,WeatherDisplay:10.37,2013-04-03 18:05:00,
2013-04-03 14:10:00,46.0,7.1,29.34,NNW,348,3.0,8.0,20,0.00,CLR,,0.00,WeatherDisplay:10.37,2013-04-03 18:10:00,
2013-04-03 14:15:00,44.8,6.1,29.32,NNW,347,5.0,6.0,20,0.00,CLR,,0.00,WeatherDisplay:10.37,2013-04-03 18:15:00,
2013-04-03 14:20:00,45.2,6.4,29.32,NNE,27,3.0,8.0,20,0.00,CLR,,0.00,WeatherDisplay:10.37,2013-04-03 18:20:00,
2013-04-03 14:25:00,45.3,6.5,29.32,NE,53,5.0,8.0,20,0.00,CLR,,0.00,WeatherDisplay:10.37,2013-04-03 18:25:00,
2013-04-03 14:30:00,45.6,6.8,29.32,NE,50,3.0,6.0,20,0.00,CLR,,0.00,WeatherDisplay:10.37,2013-04-03 18:30:00,
2013-04-03 14:40:00,47.1,6.9,29.32,ENE,66,1.0,6.0,19,0.00,CLR,,0.00,WeatherDisplay:10.37,2013-04-03 18:40:00,
2013-04-03 14:45:00,46.9,6.7,29.32,NE,53,3.0,6.0,19,0.00,CLR,,0.00,WeatherDisplay:10.37,2013-04-03 18:45:00,
2013-04-03 14:50:00,47.2,7.0,29.32,North,11,5.0,8.0,19,0.00,CLR,,0.00,WeatherDisplay:10.37,2013-04-03 18:50:00,
2013-04-03 15:00:00,47.4,7.1,29.29,NNE,20,0.0,5.0,19,0.00,CLR,,0.00,WeatherDisplay:10.37,2013-04-03 19:00:00,
2013-04-03 15:05:00,47.2,6.9,29.29,NE,35,6.0,8.0,19,0.00,CLR,,0.00,WeatherDisplay:10.37,2013-04-03 19:05:00,
2013-04-03 15:10:00,47.2,6.9,29.29,North,11,5.0,7.0,19,0.00,CLR,,0.00,WeatherDisplay:10.37,2013-04-03 19:10:00,
2013-04-03 15:15:00,47.3,7.0,29.29,North,10,2.0,8.0,19,0.00,CLR,,0.00,WeatherDisplay:10.37,2013-04-03 19:15:00,
2013-04-03 15:20:00,47.6,7.3,29.29,NE,40,1.0,6.0,19,0.00,CLR,,0.00,WeatherDisplay:10.37,2013-04-03 19:20:00,
2013-04-03 15:25:00,46.2,7.2,29.29,NE,42,5.0,10.0,20,0.00,CLR,,0.00,WeatherDisplay:10.37,2013-04-03 19:25:00,
2013-04-03 15:30:00,46.5,6.4,29.29,NE,48,5.0,6.0,19,0.00,CLR,,0.00,WeatherDisplay:10.37,2013-04-03 19:30:00,
2013-04-03 15:35:00,47.4,7.2,29.29,NE,47,3.0,7.0,19,0.00,CLR,,0.00,WeatherDisplay:10.37,2013-04-03 19:35:00,
2013-04-03 15:40:00,47.4,7.1,29.26,NNE,18,3.0,8.0,19,0.00,CLR,,0.00,WeatherDisplay:10.37,2013-04-03 19:40:00,
2013-04-03 15:45:00,47.7,7.3,29.26,NNE,27,3.0,6.0,19,0.00,CLR,,0.00,WeatherDisplay:10.37,2013-04-03 19:45:00,
2013-04-03 15:50:00,47.8,7.5,29.26,NNE,27,3.0,6.0,19,0.00,CLR,,0.00,WeatherDisplay:10.37,2013-04-03 19:50:00,
2013-04-03 15:55:00,46.5,6.4,29.29,NE,40,6.0,12.0,19,0.00,CLR,,0.00,WeatherDisplay:10.37,2013-04-03 19:55:00,
2013-04-03 16:00:00,46.8,6.6,29.29,NE,45,10.0,13.0,19,0.00,CLR,,0.00,WeatherDisplay:10.37,2013-04-03 20:00:00,
2013-04-03 16:10:00,47.1,6.9,29.29,ENE,58,6.0,10.0,19,0.00,CLR,,0.00,WeatherDisplay:10.37,2013-04-03 20:10:00,
2013-04-03 16:15:00,47.4,7.1,29.29,ENE,60,2.0,9.0,19,0.00,CLR,,0.00,WeatherDisplay:10.37,2013-04-03 20:15:00,
2013-04-03 16:20:00,47.0,6.8,29.29,ENE,64,3.0,6.0,19,0.00,CLR,,0.00,WeatherDisplay:10.37,2013-04-03 20:20:00,
2013-04-03 16:25:00,48.1,7.7,29.29,NE,54,2.0,6.0,19,0.00,CLR,,0.00,WeatherDisplay:10.37,2013-04-03 20:25:00,
2013-04-03 16:30:00,47.7,7.3,29.29,NE,43,0.0,5.0,19,0.00,CLR,,0.00,WeatherDisplay:10.37,2013-04-03 20:30:00,
2013-04-03 16:40:00,48.1,7.7,29.29,NE,40,2.0,5.0,19,0.00,CLR,,0.00,WeatherDisplay:10.37,2013-04-03 20:40:00,
2013-04-03 16:45:00,47.9,7.6,29.29,NE,55,7.0,9.0,19,0.00,CLR,,0.00,WeatherDisplay:10.37,2013-04-03 20:45:00,
2013-04-03 16:50:00,48.0,7.6,29.29,NE,45,6.0,8.0,19,0.00,CLR,,0.00,WeatherDisplay:10.37,2013-04-03 20:50:00,
2013-04-03 16:55:00,48.3,7.9,29.29,ENE,65,3.0,6.0,19,0.00,CLR,,0.00,WeatherDisplay:10.37,2013-04-03 20:55:00,
2013-04-03 17:00:00,48.4,7.9,29.29,ENE,73,6.0,9.0,19,0.00,CLR,,0.00,WeatherDisplay:10.37,2013-04-03 21:00:00,
2013-04-03 17:10:00,48.2,7.8,29.29,ENE,61,3.0,9.0,19,0.00,CLR,,0.00,WeatherDisplay:10.37,2013-04-03 21:10:00,
2013-04-03 17:15:00,48.0,7.6,29.29,ENE,60,1.0,6.0,19,0.00,CLR,,0.00,WeatherDisplay:10.37,2013-04-03 21:15:00,
2013-04-03 17:20:00,47.9,7.5,29.29,NE,43,3.0,6.0,19,0.00,CLR,,0.00,WeatherDisplay:10.37,2013-04-03 21:20:00,
2013-04-03 17:25:00,48.0,7.6,29.29,NE,37,3.0,6.0,19,0.00,CLR,,0.00,WeatherDisplay:10.37,2013-04-03 21:25:00,
2013-04-03 17:30:00,48.6,8.1,29.29,ENE,58,1.0,4.0,19,0.00,CLR,,0.00,WeatherDisplay:10.37,2013-04-03 21:30:00,
2013-04-03 17:35:00,48.4,7.9,29.29,ENE,65,3.0,7.0,19,0.00,CLR,,0.00,WeatherDisplay:10.37,2013-04-03 21:35:00,
2013-04-03 17:40:00,48.0,7.6,29.29,ENE,59,3.0,7.0,19,0.00,CLR,,0.00,WeatherDisplay:10.37,2013-04-03 21:40:00,
2013-04-03 17:45:00,47.9,7.5,29.29,ENE,63,2.0,6.0,19,0.00,CLR,,0.00,WeatherDisplay:10.37,2013-04-03 21:45:00,
2013-04-03 17:50:00,47.8,7.5,29.29,ENE,64,6.0,9.0,19,0.00,CLR,,0.00,WeatherDisplay:10.37,2013-04-03 21:50:00,
2013-04-03 17:55:00,48.0,7.7,29.29,ENE,69,2.0,6.0,19,0.00,CLR,,0.00,WeatherDisplay:10.37,2013-04-03 21:55:00,
2013-04-03 18:00:00,48.3,7.9,29.29,East,79,2.0,6.0,19,0.00,CLR,,0.00,WeatherDisplay:10.37,2013-04-03 22:00:00,
2013-04-03 18:05:00,48.0,7.7,29.29,East,91,3.0,8.0,19,0.00,CLR,,0.00,WeatherDisplay:10.37,2013-04-03 22:05:00,
2013-04-03 18:10:00,47.9,7.5,29.29,East,95,1.0,8.0,19,0.00,CLR,,0.00,WeatherDisplay:10.37,2013-04-03 22:10:00,
2013-04-03 18:20:00,47.7,7.3,29.29,ENE,67,5.0,8.0,19,0.00,CLR,,0.00,WeatherDisplay:10.37,2013-04-03 22:20:00,
2013-04-03 18:25:00,47.2,7.0,29.29,ENE,61,3.0,6.0,19,0.00,CLR,,0.00,WeatherDisplay:10.37,2013-04-03 22:25:00,
2013-04-03 18:30:00,47.3,7.0,29.29,ENE,60,3.0,6.0,19,0.00,CLR,,0.00,WeatherDisplay:10.37,2013-04-03 22:30:00,
2013-04-03 18:35:00,47.2,6.9,29.29,ENE,65,2.0,6.0,19,0.00,CLR,,0.00,WeatherDisplay:10.37,2013-04-03 22:35:00,
2013-04-03 18:40:00,46.7,6.6,29.29,ENE,66,5.0,6.0,19,0.00,CLR,,0.00,WeatherDisplay:10.37,2013-04-03 22:40:00,
2013-04-03 18:45:00,46.4,6.3,29.29,ENE,72,5.0,6.0,19,0.00,CLR,,0.00,WeatherDisplay:10.37,2013-04-03 22:45:00,
2013-04-03 18:50:00,46.2,7.3,29.29,ENE,76,5.0,8.0,20,0.00,CLR,,0.00,WeatherDisplay:10.37,2013-04-03 22:50:00,
2013-04-03 18:55:00,46.0,7.1,29.29,ENE,72,3.0,6.0,20,0.00,CLR,,0.00,WeatherDisplay:10.37,2013-04-03 22:55:00,
2013-04-03 19:00:00,45.9,7.0,29.29,ENE,72,5.0,6.0,20,0.00,CLR,,0.00,WeatherDisplay:10.37,2013-04-03 23:00:00,
2013-04-03 19:05:00,45.7,6.8,29.29,East,83,6.0,6.0,20,0.00,CLR,,0.00,WeatherDisplay:10.37,2013-04-03 23:05:00,
2013-04-03 19:10:00,45.5,6.7,29.29,East,84,6.0,6.0,20,0.00,CLR,,0.00,WeatherDisplay:10.37,2013-04-03 23:10:00,
2013-04-03 19:15:00,45.5,6.7,29.29,ENE,77,3.0,6.0,20,0.00,CLR,,0.00,WeatherDisplay:10.37,2013-04-03 23:15:00,
2013-04-03 19:20:00,45.3,6.5,29.29,ENE,76,5.0,6.0,20,0.00,CLR,,0.00,WeatherDisplay:10.37,2013-04-03 23:20:00,
2013-04-03 19:25:00,45.0,6.2,29.29,East,82,5.0,6.0,20,0.00,CLR,,0.00,WeatherDisplay:10.37,2013-04-03 23:25:00,
2013-04-03 19:30:00,44.8,6.1,29.29,East,89,2.0,6.0,20,0.00,CLR,,0.00,WeatherDisplay:10.37,2013-04-03 23:30:00,
2013-04-03 19:35:00,44.5,5.8,29.29,ESE,103,3.0,6.0,20,0.00,CLR,,0.00,WeatherDisplay:10.37,2013-04-03 23:35:00,
2013-04-03 19:40:00,44.1,5.5,29.29,East,95,5.0,6.0,20,0.00,CLR,,0.00,WeatherDisplay:10.37,2013-04-03 23:40:00,
2013-04-03 19:45:00,44.1,5.5,29.29,East,83,3.0,6.0,20,0.00,CLR,,0.00,WeatherDisplay:10.37,2013-04-03 23:45:00,
2013-04-03 19:50:00,44.2,5.6,29.29,East,82,3.0,6.0,20,0.00,CLR,,0.00,WeatherDisplay:10.37,2013-04-03 23:50:00,
2013-04-03 19:55:00,44.6,5.9,29.29,East,87,2.0,5.0,20,0.00,CLR,,0.00,WeatherDisplay:10.37,2013-04-03 23:55:00,
2013-04-03 20:00:00,43.6,5.1,29.29,East,94,2.0,4.0,20,0.00,CLR,,0.00,WeatherDisplay:10.37,2013-04-04 00:00:00,
2013-04-03 20:05:00,42.3,5.1,29.29,East,96,2.0,4.0,21,0.00,CLR,,0.00,WeatherDisplay:10.37,2013-04-04 00:05:00,
2013-04-03 20:10:00,41.4,4.3,29.26,East,88,2.0,4.0,21,0.00,CLR,,0.00,WeatherDisplay:10.37,2013-04-04 00:10:00,
2013-04-03 20:15:00,40.8,3.8,29.26,East,83,2.0,4.0,21,0.00,CLR,,0.00,WeatherDisplay:10.37,2013-04-04 00:15:00,
2013-04-03 20:20:00,40.2,3.3,29.26,East,83,0.0,0.0,21,0.00,CLR,,0.00,WeatherDisplay:10.37,2013-04-04 00:20:00,
2013-04-03 20:25:00,39.7,2.9,29.26,East,83,0.0,3.0,21,0.00,CLR,,0.00,WeatherDisplay:10.37,2013-04-04 00:25:00,
2013-04-03 20:30:00,39.4,2.6,29.26,East,83,2.0,3.0,21,0.00,CLR,,0.00,WeatherDisplay:10.37,2013-04-04 00:30:00,
2013-04-03 20:35:00,39.2,2.5,29.26,East,83,3.0,4.0,21,0.00,CLR,,0.00,WeatherDisplay:10.37,2013-04-04 00:35:00,
2013-04-03 20:40:00,38.8,2.2,29.26,East,82,2.0,3.0,21,0.00,CLR,,0.00,WeatherDisplay:10.37,2013-04-04 00:40:00,
2013-04-03 20:45:00,38.5,1.9,29.26,East,82,0.0,3.0,21,0.00,CLR,,0.00,WeatherDisplay:10.37,2013-04-04 00:45:00,
2013-04-03 20:50:00,38.1,1.6,29.26,East,82,0.0,0.0,21,0.00,CLR,,0.00,WeatherDisplay:10.37,2013-04-04 00:50:00,
2013-04-03 20:55:00,38.1,1.6,29.26,East,82,0.0,4.0,21,0.00,CLR,,0.00,WeatherDisplay:10.37,2013-04-04 00:55:00,
2013-04-03 21:05:00,37.8,1.3,29.26,East,82,3.0,4.0,21,0.00,CLR,,0.00,WeatherDisplay:10.37,2013-04-04 01:05:00,
2013-04-03 21:10:00,37.6,1.1,29.26,East,82,1.0,3.0,21,0.00,CLR,,0.00,WeatherDisplay:10.37,2013-04-04 01:10:00,
2013-04-03 21:15:00,37.4,0.9,29.26,East,82,0.0,3.0,21,0.00,CLR,,0.00,WeatherDisplay:10.37,2013-04-04 01:15:00,
2013-04-03 21:20:00,37.0,1.6,29.26,East,82,0.0,0.0,22,0.00,CLR,,0.00,WeatherDisplay:10.37,2013-04-04 01:20:00,
2013-04-03 21:25:00,36.4,1.1,29.26,East,82,0.0,0.0,22,0.00,CLR,,0.00,WeatherDisplay:10.37,2013-04-04 01:25:00,
2013-04-03 21:30:00,36.0,0.7,29.26,East,82,0.0,0.0,22,0.00,CLR,,0.00,WeatherDisplay:10.37,2013-04-04 01:30:00,
2013-04-03 21:35:00,35.5,0.3,29.26,East,82,0.0,0.0,22,0.00,CLR,,0.00,WeatherDisplay:10.37,2013-04-04 01:35:00,
2013-04-03 21:40:00,35.1,0.0,29.26,East,82,0.0,0.0,22,0.00,CLR,,0.00,WeatherDisplay:10.37,2013-04-04 01:40:00,
2013-04-03 21:45:00,34.9,-0.2,29.26,East,82,0.0,0.0,22,0.00,CLR,,0.00,WeatherDisplay:10.37,2013-04-04 01:45:00,
2013-04-03 21:50:00,34.7,-0.4,29.26,East,82,0.0,0.0,22,0.00,CLR,,0.00,WeatherDisplay:10.37,2013-04-04 01:50:00,
2013-04-03 21:55:00,34.5,-0.5,29.26,East,82,0.0,0.0,22,0.00,CLR,,0.00,WeatherDisplay:10.37,2013-04-04 01:55:00,
2013-04-03 22:00:00,34.4,-0.6,29.26,East,82,0.0,0.0,22,0.00,CLR,,0.00,WeatherDisplay:10.37,2013-04-04 02:00:00,
2013-04-03 22:05:00,34.0,-1.0,29.26,East,82,0.0,0.0,22,0.00,CLR,,0.00,WeatherDisplay:10.37,2013-04-04 02:05:00,
2013-04-03 22:10:00,33.5,-0.4,29.26,East,82,0.0,0.0,23,0.00,CLR,,0.00,WeatherDisplay:10.37,2013-04-04 02:10:00,
2013-04-03 22:15:00,33.2,-0.7,29.26,East,82,0.0,0.0,23,0.00,CLR,,0.00,WeatherDisplay:10.37,2013-04-04 02:15:00,
2013-04-03 22:20:00,33.1,-0.8,29.26,East,82,0.0,0.0,23,0.00,CLR,,0.00,WeatherDisplay:10.37,2013-04-04 02:20:00,
2013-04-03 22:25:00,33.1,-0.8,29.26,East,82,0.0,3.0,23,0.00,CLR,,0.00,WeatherDisplay:10.37,2013-04-04 02:25:00,
2013-04-03 22:30:00,33.3,-0.6,29.26,East,82,0.0,2.0,23,0.00,CLR,,0.00,WeatherDisplay:10.37,2013-04-04 02:30:00,
2013-04-03 22:35:00,33.6,-0.3,29.26,East,82,2.0,4.0,23,0.00,CLR,,0.00,WeatherDisplay:10.37,2013-04-04 02:35:00,
2013-04-03 22:40:00,34.4,-0.6,29.24,East,82,0.0,4.0,22,0.00,CLR,,0.00,WeatherDisplay:10.37,2013-04-04 02:40:00,
2013-04-03 22:45:00,34.5,-0.5,29.24,East,82,0.0,3.0,22,0.00,CLR,,0.00,WeatherDisplay:10.37,2013-04-04 02:45:00,
2013-04-03 22:50:00,34.7,-0.4,29.24,East,82,0.0,3.0,22,0.00,CLR,,0.00,WeatherDisplay:10.37,2013-04-04 02:50:00,
2013-04-03 22:55:00,34.3,-0.6,29.26,East,82,2.0,3.0,22,0.00,CLR,,0.00,WeatherDisplay:10.37,2013-04-04 02:55:00,
2013-04-03 23:00:00,34.3,-0.6,29.26,East,82,0.0,3.0,22,0.00,CLR,,0.00,WeatherDisplay:10.37,2013-04-04 03:00:00,
2013-04-03 23:05:00,34.3,-0.6,29.26,East,82,0.0,3.0,22,0.00,CLR,,0.00,WeatherDisplay:10.37,2013-04-04 03:05:00,
2013-04-03 23:10:00,34.6,-0.4,29.26,ENE,78,3.0,5.0,22,0.00,CLR,,0.00,WeatherDisplay:10.37,2013-04-04 03:10:00,
2013-04-03 23:15:00,34.9,-0.2,29.26,ENE,72,2.0,4.0,22,0.00,CLR,,0.00,WeatherDisplay:10.37,2013-04-04 03:15:00,
2013-04-03 23:20:00,34.4,-0.6,29.26,ENE,69,0.0,3.0,22,0.00,CLR,,0.00,WeatherDisplay:10.37,2013-04-04 03:20:00,
2013-04-03 23:25:00,34.1,-0.8,29.26,ENE,69,0.0,0.0,22,0.00,CLR,,0.00,WeatherDisplay:10.37,2013-04-04 03:25:00,
2013-04-03 23:30:00,33.7,-0.3,29.26,ENE,69,0.0,0.0,23,0.00,CLR,,0.00,WeatherDisplay:10.37,2013-04-04 03:30:00,
2013-04-03 23:35:00,33.3,-0.6,29.26,ENE,69,0.0,0.0,23,0.00,CLR,,0.00,WeatherDisplay:10.37,2013-04-04 03:35:00,
2013-04-03 23:40:00,32.9,-0.9,29.26,ENE,69,0.0,0.0,23,0.00,CLR,,0.00,WeatherDisplay:10.37,2013-04-04 03:40:00,
2013-04-03 23:45:00,32.6,-1.1,29.26,ENE,69,0.0,0.0,23,0.00,CLR,,0.00,WeatherDisplay:10.37,2013-04-04 03:45:00,
2013-04-03 23:55:00,32.1,-1.6,29.26,ENE,69,0.0,0.0,23,0.00,CLR,,0.00,WeatherDisplay:10.37,2013-04-04 03:55:00,